Time;durP1;ratioP1;P1;durP2;ratioP2;P2;SDS_P1;SDS_P2;PMS_P1;PMS_P2;Temp;Humidity;BMP_temperature;BMP_pressure;BME280_temperature;BME280_humidity;BME280_pressure;Samples;Min_cycle;Max_cycle;Signal;HPM_P1;HPM_P2
2021/05/31 00:01:04;;;;;;;44.03;25.77;;;9.10;95.70;;;;;;4983570;28;20035;-81
2021/05/31 00:03:30;;;;;;;50.03;26.13;;;9.00;95.40;;;;;;4950262;29;20296;-84
2021/05/31 00:05:56;;;;;;;48.45;25.73;;;9.00;95.60;;;;;;4932981;29;20047;-86
2021/05/31 00:08:22;;;;;;;51.15;26.92;;;9.00;95.60;;;;;;4924351;28;20050;-85
2021/05/31 00:10:48;;;;;;;51.80;25.23;;;8.90;95.70;;;;;;4949643;28;20090;-82
2021/05/31 00:13:16;;;;;;;47.08;26.50;;;8.90;96.10;;;;;;4933974;29;20408;-84
2021/05/31 00:15:42;;;;;;;45.55;26.02;;;8.90;96.00;;;;;;4973542;28;20043;-86
2021/05/31 00:18:08;;;;;;;45.75;26.17;;;8.80;96.00;;;;;;4962865;28;20126;-83
2021/05/31 00:20:34;;;;;;;57.03;27.88;;;8.80;96.10;;;;;;4965441;28;20122;-84
2021/05/31 00:23:00;;;;;;;51.33;28.75;;;8.80;96.30;;;;;;4962509;28;20050;-85
2021/05/31 00:25:26;;;;;;;56.58;28.77;;;8.70;96.30;;;;;;4933715;29;20035;-85
2021/05/31 00:27:52;;;;;;;57.47;28.65;;;8.70;96.50;;;;;;4933570;28;20035;-85
2021/05/31 00:30:21;;;;;;;60.42;30.92;;;8.60;96.50;;;;;;4919247;29;20039;-84
2021/05/31 00:32:48;;;;;;;62.33;30.58;;;8.60;96.60;;;;;;4919849;28;20446;-85
2021/05/31 00:35:15;;;;;;;54.80;29.52;;;8.60;96.80;;;;;;4951957;28;20042;-85
2021/05/31 00:37:41;;;;;;;57.25;30.42;;;8.60;96.80;;;;;;4981576;28;20042;-85
2021/05/31 00:40:11;;;;;;;79.78;33.30;;;8.60;96.80;;;;;;4945489;29;20043;-86
2021/05/31 00:42:38;;;;;;;64.90;33.65;;;8.60;96.70;;;;;;4959912;28;20490;-87
2021/05/31 00:45:06;;;;;;;129.18;34.85;;;8.60;96.80;;;;;;4948657;29;20046;-87
2021/05/31 00:47:32;;;;;;;88.05;34.67;;;8.60;96.90;;;;;;4988591;28;20043;-84
2021/05/31 00:50:01;;;;;;;156.98;33.63;;;8.60;97.10;;;;;;4949073;28;20039;-84
2021/05/31 00:52:27;;;;;;;100.75;33.45;;;8.50;97.20;;;;;;4934901;29;20742;-84
2021/05/31 00:54:53;;;;;;;196.50;32.30;;;8.50;97.00;;;;;;4941842;29;20035;-85
2021/05/31 00:57:19;;;;;;;127.43;30.23;;;8.50;97.20;;;;;;4953968;28;20066;-86
2021/05/31 00:59:45;;;;;;;152.27;31.05;;;8.50;97.60;;;;;;4972231;28;20043;-84
2021/05/31 01:02:11;;;;;;;120.38;31.38;;;8.40;98.00;;;;;;4922958;29;20046;-84
2021/05/31 01:04:37;;;;;;;96.18;28.85;;;8.40;97.70;;;;;;4935623;28;20054;-84
2021/05/31 01:07:18;;;;;;;332.83;29.63;;;8.40;97.90;;;;;;4953670;28;20043;-85
2021/05/31 01:09:58;;;;;;;269.38;29.33;;;8.40;98.00;;;;;;4955630;28;20123;-85
2021/05/31 01:12:55;;;;;;;283.88;30.35;;;8.30;98.10;;;;;;4952898;28;20070;-86
2021/05/31 01:15:39;;;;;;;261.48;31.00;;;8.30;97.90;;;;;;4950711;28;20047;-83
2021/05/31 01:18:10;;;;;;;186.00;27.63;;;8.20;98.10;;;;;;4954994;29;20043;-83
2021/05/31 01:20:39;;;;;;;193.07;30.33;;;8.20;98.70;;;;;;4959626;28;20042;-85
2021/05/31 01:23:10;;;;;;;145.05;29.50;;;8.10;98.50;;;;;;4968834;28;20134;-84
2021/05/31 01:25:49;;;;;;;115.80;30.08;;;8.20;98.30;;;;;;4956453;28;20042;-85
2021/05/31 01:28:26;;;;;;;142.55;30.55;;;8.20;98.40;;;;;;4955412;28;20078;-85
2021/05/31 01:30:54;;;;;;;300.42;30.55;;;8.20;98.40;;;;;;4954554;28;20039;-88
2021/05/31 01:33:23;;;;;;;93.22;28.92;;;8.20;98.50;;;;;;4953862;29;20058;-85
2021/05/31 01:35:50;;;;;;;107.88;28.65;;;8.20;98.70;;;;;;4955977;28;20471;-84
2021/05/31 01:38:22;;;;;;;172.15;29.17;;;8.20;98.80;;;;;;4936537;29;20480;-85
2021/05/31 01:40:50;;;;;;;143.65;27.52;;;8.20;98.80;;;;;;4956311;28;20482;-87
2021/05/31 01:43:17;;;;;;;181.35;28.17;;;8.10;98.90;;;;;;4956327;28;20039;-85
2021/05/31 01:45:44;;;;;;;213.32;27.55;;;8.10;99.30;;;;;;4952810;29;20043;-85
2021/05/31 01:48:11;;;;;;;123.07;27.20;;;8.10;99.30;;;;;;4945287;29;20027;-87
2021/05/31 01:50:38;;;;;;;134.80;28.52;;;8.10;99.10;;;;;;4977205;28;20118;-85
2021/05/31 01:53:04;;;;;;;108.63;28.35;;;8.00;99.10;;;;;;4942103;29;20047;-84
2021/05/31 01:55:32;;;;;;;112.70;29.48;;;8.10;99.00;;;;;;4923047;28;20039;-85
2021/05/31 01:57:58;;;;;;;198.93;28.58;;;8.10;99.10;;;;;;4987869;28;20122;-87
2021/05/31 02:00:25;;;;;;;203.95;29.67;;;8.10;98.90;;;;;;4956312;28;20055;-84
2021/05/31 02:02:52;;;;;;;120.55;29.38;;;8.10;99.30;;;;;;4939643;29;20039;-84
2021/05/31 02:05:18;;;;;;;113.75;28.00;;;8.10;99.40;;;;;;4936539;28;20051;-84
2021/05/31 02:07:44;;;;;;;107.50;28.98;;;8.10;99.30;;;;;;4994314;28;20090;-84
2021/05/31 02:10:11;;;;;;;163.48;31.33;;;8.10;99.20;;;;;;4950814;28;20035;-83
2021/05/31 02:12:59;;;;;;;97.13;31.17;;;8.20;99.40;;;;;;4968221;28;20058;-84
2021/05/31 02:15:29;;;;;;;97.93;30.80;;;8.20;99.30;;;;;;4948874;29;20027;-85
2021/05/31 02:18:18;;;;;;;118.47;28.92;;;8.20;99.20;;;;;;4948846;29;20585;-83
2021/05/31 02:20:45;;;;;;;108.15;28.65;;;8.30;99.50;;;;;;4967246;28;20047;-83
2021/05/31 02:23:14;;;;;;;180.63;30.42;;;8.30;99.00;;;;;;4951941;28;20042;-84
2021/05/31 02:25:41;;;;;;;135.57;30.00;;;8.30;99.10;;;;;;4982986;28;20047;-83
2021/05/31 02:28:07;;;;;;;120.18;30.05;;;8.30;99.20;;;;;;4983560;28;20043;-83
2021/05/31 02:30:33;;;;;;;151.90;29.52;;;8.30;99.10;;;;;;4933490;28;20043;-83
2021/05/31 02:33:02;;;;;;;127.90;28.10;;;8.30;99.10;;;;;;4918479;29;20102;-83
2021/05/31 02:35:31;;;;;;;156.15;31.30;;;8.40;99.30;;;;;;4949264;29;20093;-84
2021/05/31 02:38:01;;;;;;;147.23;30.67;;;8.40;99.10;;;;;;4947534;28;20118;-83
2021/05/31 02:40:28;;;;;;;144.45;31.20;;;8.40;99.30;;;;;;4951844;28;20126;-84
2021/05/31 02:42:57;;;;;;;115.05;30.98;;;8.40;99.10;;;;;;4966046;28;20051;-83
2021/05/31 02:45:25;;;;;;;117.75;32.10;;;8.40;99.10;;;;;;4950667;28;20047;-84
2021/05/31 02:47:53;;;;;;;141.88;32.40;;;8.40;99.30;;;;;;4950343;28;20031;-83
2021/05/31 02:50:19;;;;;;;127.60;30.55;;;8.40;99.10;;;;;;4947962;29;20032;-83
2021/05/31 02:52:45;;;;;;;220.20;33.33;;;8.50;99.10;;;;;;4964134;28;20039;-83
2021/05/31 02:55:15;;;;;;;136.38;30.95;;;8.50;99.00;;;;;;4952625;28;20139;-84
2021/05/31 02:57:42;;;;;;;232.85;32.88;;;8.50;99.20;;;;;;4951203;29;20160;-84
2021/05/31 03:00:11;;;;;;;130.25;29.52;;;8.50;99.50;;;;;;4973162;28;20028;-84
2021/05/31 03:02:37;;;;;;;140.75;32.20;;;8.50;99.60;;;;;;4961526;28;20105;-83
2021/05/31 03:05:04;;;;;;;151.43;31.33;;;8.50;99.50;;;;;;4949906;29;20036;-83
2021/05/31 03:07:30;;;;;;;138.40;29.92;;;8.50;99.90;;;;;;4964855;28;20032;-83
2021/05/31 03:09:56;;;;;;;143.73;32.65;;;8.50;99.60;;;;;;4932660;28;20468;-83
2021/05/31 03:12:22;;;;;;;153.70;31.88;;;8.50;99.40;;;;;;4921086;29;20122;-84
2021/05/31 03:14:48;;;;;;;107.47;32.75;;;8.60;99.80;;;;;;4950298;29;20051;-84
2021/05/31 03:17:14;;;;;;;180.40;34.35;;;8.60;99.50;;;;;;4921165;29;20038;-84
2021/05/31 03:19:40;;;;;;;151.13;30.20;;;8.60;99.40;;;;;;4966182;28;20039;-84
2021/05/31 03:22:10;;;;;;;141.93;30.77;;;8.60;99.60;;;;;;4952868;28;20043;-83
2021/05/31 03:24:36;;;;;;;210.70;35.78;;;8.60;99.60;;;;;;4942284;29;20418;-83
2021/05/31 03:27:02;;;;;;;147.50;30.45;;;8.60;99.50;;;;;;4953156;29;20043;-83
2021/05/31 03:29:29;;;;;;;165.93;29.92;;;8.60;99.40;;;;;;4941807;28;20048;-83
2021/05/31 03:31:55;;;;;;;167.00;32.97;;;8.60;99.70;;;;;;4940027;29;20053;-84
2021/05/31 03:34:21;;;;;;;139.73;32.90;;;8.60;99.60;;;;;;4955741;28;20562;-84
2021/05/31 03:36:47;;;;;;;138.40;32.97;;;8.60;99.50;;;;;;4961037;29;20058;-83
2021/05/31 03:39:13;;;;;;;190.57;34.15;;;8.70;99.80;;;;;;4945520;29;20359;-87
2021/05/31 03:41:40;;;;;;;233.00;35.17;;;8.70;99.70;;;;;;4975337;28;20043;-84
2021/05/31 03:44:06;;;;;;;141.13;32.55;;;8.70;99.70;;;;;;4959226;29;20094;-83
2021/05/31 03:46:32;;;;;;;199.65;36.83;;;8.70;99.70;;;;;;4956951;29;20031;-85
2021/05/31 03:48:58;;;;;;;175.65;34.05;;;8.70;99.70;;;;;;4974513;28;20074;-82
2021/05/31 03:51:23;;;;;;;207.60;34.75;;;8.70;99.70;;;;;;4961934;28;20483;-84
2021/05/31 03:53:49;;;;;;;205.05;35.45;;;8.80;99.70;;;;;;4958475;29;20355;-84
2021/05/31 03:56:15;;;;;;;184.88;34.25;;;8.80;99.60;;;;;;4956369;28;20043;-83
2021/05/31 03:58:42;;;;;;;144.70;34.30;;;8.80;99.90;;;;;;4972229;28;20039;-85
2021/05/31 04:01:09;;;;;;;189.55;33.42;;;8.80;99.80;;;;;;4958818;28;20032;-87
2021/05/31 04:03:36;;;;;;;257.83;33.78;;;8.90;99.90;;;;;;4982813;28;20054;-83
2021/05/31 04:11:37;;;;;;;237.90;33.97;;;8.90;99.90;;;;;;4970678;28;19919;-82
2021/05/31 04:14:14;;;;;;;139.07;34.88;;;8.90;99.90;;;;;;4974819;28;20477;-83
2021/05/31 04:16:43;;;;;;;177.15;34.80;;;8.90;99.90;;;;;;4962027;28;20058;-82
2021/05/31 04:19:13;;;;;;;201.52;33.72;;;9.00;99.90;;;;;;4958462;28;20043;-84
2021/05/31 04:21:42;;;;;;;303.65;38.67;;;9.00;99.90;;;;;;4974429;28;20035;-83
2021/05/31 04:24:08;;;;;;;242.27;35.15;;;9.00;99.90;;;;;;4973461;28;20087;-84
2021/05/31 04:26:35;;;;;;;273.25;37.35;;;9.00;99.90;;;;;;4940552;29;20031;-84
2021/05/31 04:29:03;;;;;;;259.33;36.38;;;9.00;99.80;;;;;;4948827;28;20039;-83
2021/05/31 04:31:29;;;;;;;189.98;36.90;;;9.10;99.90;;;;;;4959378;28;20590;-82
2021/05/31 04:33:55;;;;;;;208.38;38.15;;;9.10;99.90;;;;;;4960227;28;20214;-83
2021/05/31 04:36:23;;;;;;;195.80;37.63;;;9.10;99.90;;;;;;4945403;29;20474;-83
2021/05/31 04:38:50;;;;;;;261.77;36.58;;;9.10;99.90;;;;;;4939374;29;20039;-84
2021/05/31 04:41:16;;;;;;;298.85;41.08;;;9.20;99.90;;;;;;4972343;28;20537;-83
2021/05/31 04:43:43;;;;;;;198.75;39.78;;;9.10;99.90;;;;;;4955605;29;20035;-83
2021/05/31 04:46:08;;;;;;;410.00;41.50;;;9.20;99.90;;;;;;4979149;28;20070;-83
2021/05/31 04:48:34;;;;;;;242.60;37.90;;;9.20;99.90;;;;;;4971151;28;20058;-82
2021/05/31 04:51:02;;;;;;;165.18;35.78;;;9.20;99.90;;;;;;4957611;28;20486;-83
2021/05/31 04:53:32;;;;;;;257.30;37.20;;;9.30;99.90;;;;;;4940468;28;20122;-83
2021/05/31 04:56:01;;;;;;;307.85;36.33;;;9.30;99.90;;;;;;4958828;28;20070;-83
2021/05/31 04:58:27;;;;;;;322.33;35.97;;;9.30;99.90;;;;;;4958329;28;20402;-82
2021/05/31 05:00:53;;;;;;;250.10;35.17;;;9.30;99.90;;;;;;4937263;29;20039;-82
2021/05/31 05:03:20;;;;;;;233.90;32.30;;;9.30;99.90;;;;;;4985846;28;20043;-83
2021/05/31 05:05:47;;;;;;;170.43;33.30;;;9.30;99.90;;;;;;4977898;28;20047;-83
2021/05/31 05:08:13;;;;;;;247.55;35.78;;;9.30;99.90;;;;;;4956197;29;20218;-82
2021/05/31 05:10:39;;;;;;;138.40;33.55;;;9.30;99.90;;;;;;4960055;28;20061;-82
2021/05/31 05:13:05;;;;;;;175.15;36.08;;;9.40;99.90;;;;;;4960185;28;20116;-83
2021/05/31 05:15:32;;;;;;;156.98;39.85;;;9.40;99.90;;;;;;4927797;29;20266;-83
2021/05/31 05:17:58;;;;;;;231.68;39.47;;;9.50;99.90;;;;;;4969399;28;20034;-84
2021/05/31 05:20:26;;;;;;;257.40;41.30;;;9.50;99.90;;;;;;4938181;29;20032;-83
2021/05/31 05:22:52;;;;;;;296.13;41.33;;;9.50;99.90;;;;;;4952067;28;20042;-83
2021/05/31 05:25:19;;;;;;;219.27;38.05;;;9.50;99.90;;;;;;4961650;28;20035;-82
2021/05/31 05:27:48;;;;;;;175.23;36.97;;;9.50;99.90;;;;;;4938615;29;20090;-82
2021/05/31 05:30:17;;;;;;;166.45;38.20;;;9.50;99.90;;;;;;4971709;28;20042;-83
2021/05/31 05:32:48;;;;;;;176.68;36.80;;;9.60;99.90;;;;;;4970365;28;20046;-83
2021/05/31 05:35:26;;;;;;;183.43;33.22;;;9.60;99.90;;;;;;4941293;29;20051;-83
2021/05/31 05:48:10;;;;;;;130.63;32.50;;;9.70;99.90;;;;;;4947874;29;20039;-82
2021/05/31 05:50:36;;;;;;;134.70;32.65;;;9.70;99.90;;;;;;4917568;29;20814;-84
2021/05/31 05:53:02;;;;;;;149.63;33.35;;;9.70;99.90;;;;;;4950991;29;20035;-83
2021/05/31 05:55:28;;;;;;;81.70;30.10;;;9.70;99.90;;;;;;4998221;28;20047;-82
2021/05/31 05:57:55;;;;;;;133.93;34.85;;;9.80;99.90;;;;;;4961508;28;20051;-83
2021/05/31 06:00:26;;;;;;;151.05;32.50;;;9.80;99.90;;;;;;4944549;28;20071;-83
2021/05/31 06:02:54;;;;;;;112.93;29.45;;;9.90;99.90;;;;;;4960044;29;20031;-83
2021/05/31 06:05:20;;;;;;;110.68;32.53;;;9.80;99.90;;;;;;4913108;29;20054;-84
2021/05/31 06:07:46;;;;;;;137.73;33.47;;;9.90;99.90;;;;;;4964511;28;20040;-83
2021/05/31 06:10:13;;;;;;;115.25;33.78;;;9.90;99.90;;;;;;4959006;28;20169;-84
2021/05/31 06:12:39;;;;;;;120.60;33.20;;;10.00;99.90;;;;;;4967495;28;20054;-84
2021/05/31 06:15:07;;;;;;;123.03;32.33;;;10.00;99.90;;;;;;4971923;28;20171;-84
2021/05/31 06:17:41;;;;;;;83.57;30.48;;;10.00;99.90;;;;;;4952195;29;20093;-83
2021/05/31 06:20:08;;;;;;;108.68;30.17;;;10.10;99.90;;;;;;4956961;29;20129;-83
2021/05/31 06:22:41;;;;;;;136.52;33.30;;;10.10;99.90;;;;;;4969884;28;20039;-84
2021/05/31 06:25:09;;;;;;;110.63;32.60;;;10.10;99.90;;;;;;4940867;29;20043;-83
2021/05/31 06:27:36;;;;;;;86.07;33.20;;;10.10;99.90;;;;;;4947992;28;20039;-83
2021/05/31 06:30:03;;;;;;;92.95;31.98;;;10.20;99.90;;;;;;4958630;29;20553;-83
2021/05/31 06:32:29;;;;;;;89.68;33.10;;;10.20;99.90;;;;;;4961524;28;20039;-84
2021/05/31 06:34:56;;;;;;;113.38;33.55;;;10.30;99.90;;;;;;4935044;29;20051;-83
2021/05/31 06:37:23;;;;;;;123.20;33.55;;;10.30;99.90;;;;;;4955562;29;20122;-86
2021/05/31 06:40:11;;;;;;;96.35;29.90;;;10.40;99.90;;;;;;4939164;29;20083;-83
2021/05/31 06:42:39;;;;;;;90.28;30.60;;;10.40;99.90;;;;;;4962493;29;20122;-83
2021/05/31 06:45:10;;;;;;;84.80;31.88;;;10.40;99.90;;;;;;4963590;29;20582;-84
2021/05/31 06:47:37;;;;;;;85.43;30.95;;;10.40;99.90;;;;;;4937326;29;20053;-83
2021/05/31 06:50:05;;;;;;;97.38;30.27;;;10.50;99.90;;;;;;4956632;28;20170;-84
2021/05/31 06:52:31;;;;;;;71.75;29.60;;;10.50;99.90;;;;;;4956234;28;20069;-83
2021/05/31 06:54:57;;;;;;;73.90;30.60;;;10.60;99.90;;;;;;4970456;28;20043;-83
2021/05/31 06:57:23;;;;;;;87.47;31.58;;;10.60;99.80;;;;;;4963638;28;20058;-83
2021/05/31 06:59:49;;;;;;;66.45;29.27;;;10.60;99.80;;;;;;4957803;28;20788;-83
2021/05/31 07:02:15;;;;;;;68.88;27.70;;;10.60;99.90;;;;;;4945024;29;20039;-83
2021/05/31 07:04:41;;;;;;;66.32;27.50;;;10.70;99.90;;;;;;4962793;28;20070;-83
2021/05/31 07:07:07;;;;;;;64.28;29.00;;;10.70;99.80;;;;;;4937703;29;20032;-84
2021/05/31 07:09:33;;;;;;;55.95;26.67;;;10.70;99.60;;;;;;4956812;28;20035;-83
2021/05/31 07:11:59;;;;;;;57.53;27.90;;;10.80;99.60;;;;;;4940315;29;20066;-83
2021/05/31 07:14:33;;;;;;;57.38;26.88;;;10.80;99.50;;;;;;4959294;28;20059;-82
2021/05/31 07:17:00;;;;;;;62.17;28.67;;;10.90;99.60;;;;;;4958875;28;20041;-82
2021/05/31 07:19:27;;;;;;;66.15;29.02;;;10.90;99.60;;;;;;4957321;28;20055;-83
2021/05/31 07:21:54;;;;;;;58.90;29.23;;;11.00;99.50;;;;;;4972094;28;20036;-83
2021/05/31 07:24:20;;;;;;;72.60;29.77;;;11.10;99.50;;;;;;4954589;29;20035;-83
2021/05/31 07:26:46;;;;;;;69.20;30.08;;;11.00;99.50;;;;;;4955676;29;20039;-83
2021/05/31 07:29:12;;;;;;;64.53;30.05;;;11.00;99.50;;;;;;4958542;29;20039;-83
2021/05/31 07:31:38;;;;;;;60.25;29.10;;;11.10;99.40;;;;;;4986123;28;20058;-83
2021/05/31 07:34:04;;;;;;;61.08;30.20;;;11.10;99.40;;;;;;4957978;28;20027;-83
2021/05/31 07:36:31;;;;;;;67.32;30.77;;;11.10;99.40;;;;;;4949427;29;20502;-82
2021/05/31 07:38:57;;;;;;;55.60;29.25;;;11.10;99.30;;;;;;4977757;28;20047;-83
2021/05/31 07:41:25;;;;;;;54.33;29.02;;;11.20;99.30;;;;;;4934384;29;20178;-83
2021/05/31 07:44:05;;;;;;;53.30;27.88;;;11.20;99.20;;;;;;4952358;28;20171;-82
2021/05/31 07:46:31;;;;;;;54.55;27.85;;;11.20;99.20;;;;;;4957934;28;20054;-83
2021/05/31 07:48:57;;;;;;;56.55;28.98;;;11.30;99.20;;;;;;4932638;29;20051;-82
2021/05/31 07:51:26;;;;;;;54.90;29.23;;;11.40;99.20;;;;;;4937660;29;20569;-83
2021/05/31 07:53:54;;;;;;;52.47;29.17;;;11.50;99.10;;;;;;4948611;28;20424;-83
2021/05/31 07:56:22;;;;;;;49.25;28.05;;;11.60;99.10;;;;;;4952531;29;20043;-82
2021/05/31 07:58:48;;;;;;;51.58;27.40;;;11.60;98.90;;;;;;4948870;29;20047;-83
2021/05/31 08:01:14;;;;;;;52.17;28.30;;;11.60;98.90;;;;;;4951113;28;20031;-84
2021/05/31 08:03:41;;;;;;;50.55;28.98;;;11.70;98.80;;;;;;4935539;29;20097;-84
2021/05/31 08:06:08;;;;;;;48.38;27.73;;;11.80;98.80;;;;;;4954372;28;20031;-83
2021/05/31 08:08:35;;;;;;;51.55;29.35;;;11.80;98.70;;;;;;4938834;29;20038;-83
2021/05/31 08:11:00;;;;;;;54.10;30.77;;;11.80;98.50;;;;;;4953901;29;20047;-82
2021/05/31 08:13:27;;;;;;;49.80;28.73;;;11.80;98.40;;;;;;4969342;28;20047;-83
2021/05/31 08:15:54;;;;;;;48.67;27.33;;;11.80;98.30;;;;;;4928741;29;20086;-87
2021/05/31 08:18:20;;;;;;;47.42;29.02;;;11.90;98.40;;;;;;4919163;29;20114;-85
2021/05/31 08:20:46;;;;;;;53.05;29.42;;;11.90;98.30;;;;;;4958532;28;20043;-82
2021/05/31 08:23:12;;;;;;;49.65;28.90;;;12.00;98.20;;;;;;4939981;29;20566;-87
2021/05/31 08:25:39;;;;;;;60.17;30.13;;;12.00;98.20;;;;;;4934563;29;20035;-85
2021/05/31 08:28:05;;;;;;;49.58;28.98;;;12.10;98.10;;;;;;4953744;28;20059;-84
2021/05/31 08:30:32;;;;;;;50.55;28.45;;;12.10;98.00;;;;;;4934236;29;20537;-84
2021/05/31 08:33:00;;;;;;;56.60;32.13;;;12.10;97.90;;;;;;4922527;29;20147;-83
2021/05/31 08:35:25;;;;;;;50.97;30.95;;;12.20;97.90;;;;;;4942139;29;20055;-82
2021/05/31 08:37:53;;;;;;;50.63;30.58;;;12.30;97.80;;;;;;4928574;29;20039;-82
2021/05/31 08:40:19;;;;;;;53.55;31.50;;;12.40;97.80;;;;;;4959914;28;20039;-83
2021/05/31 08:42:46;;;;;;;50.35;29.40;;;12.50;97.80;;;;;;4928317;29;20059;-83
2021/05/31 08:45:18;;;;;;;54.55;31.00;;;12.60;97.60;;;;;;4960224;28;20394;-81
2021/05/31 08:47:45;;;;;;;53.22;31.05;;;12.70;97.60;;;;;;4945757;29;20035;-82
2021/05/31 08:50:24;;;;;;;55.10;31.63;;;12.80;97.50;;;;;;4941037;28;20042;-83
2021/05/31 08:52:51;;;;;;;53.85;29.85;;;12.90;97.50;;;;;;4942039;28;20522;-86
2021/05/31 08:55:20;;;;;;;39.97;26.05;;;13.10;97.40;;;;;;4935019;29;20039;-82
2021/05/31 08:57:47;;;;;;;43.10;27.52;;;13.10;97.00;;;;;;4947804;29;20036;-82
2021/05/31 09:00:16;;;;;;;44.47;28.98;;;13.20;97.00;;;;;;4945337;28;20088;-84
2021/05/31 09:02:42;;;;;;;44.30;28.35;;;13.30;96.80;;;;;;4961706;28;20119;-84
2021/05/31 09:05:09;;;;;;;42.30;27.98;;;13.30;96.50;;;;;;4959193;28;20044;-83
2021/05/31 09:07:36;;;;;;;46.88;28.48;;;13.40;96.50;;;;;;4937438;29;20157;-84
2021/05/31 09:10:06;;;;;;;41.58;28.13;;;13.40;96.30;;;;;;4951499;28;20398;-85
2021/05/31 09:12:36;;;;;;;42.78;27.98;;;13.50;96.20;;;;;;4947242;28;20509;-83
2021/05/31 09:15:07;;;;;;;43.03;27.10;;;13.60;96.30;;;;;;4948870;28;20046;-82
2021/05/31 09:17:35;;;;;;;37.60;25.33;;;13.70;96.40;;;;;;4952697;28;20422;-82
2021/05/31 09:20:02;;;;;;;35.95;23.83;;;13.80;96.10;;;;;;4953139;28;20046;-83
2021/05/31 09:22:28;;;;;;;42.13;25.27;;;14.00;95.80;;;;;;4947786;29;20035;-83
2021/05/31 09:24:55;;;;;;;36.50;24.48;;;14.10;95.90;;;;;;4917557;29;20051;-82
2021/05/31 09:27:21;;;;;;;35.53;24.33;;;14.20;95.60;;;;;;4955335;28;20035;-83
2021/05/31 09:30:04;;;;;;;42.95;27.15;;;14.30;95.30;;;;;;4951186;28;20035;-83
2021/05/31 09:32:30;;;;;;;35.08;23.35;;;14.40;95.60;;;;;;4952614;28;20090;-84
2021/05/31 09:35:12;;;;;;;33.85;24.42;;;14.50;95.40;;;;;;4933713;29;20043;-84
2021/05/31 09:37:48;;;;;;;33.40;22.77;;;14.60;94.70;;;;;;4945822;29;20036;-82
2021/05/31 09:40:20;;;;;;;36.22;22.90;;;14.70;94.40;;;;;;4968132;28;20082;-86
2021/05/31 09:42:52;;;;;;;31.48;20.67;;;14.80;93.80;;;;;;4956220;29;20063;-84
2021/05/31 09:45:18;;;;;;;30.90;19.77;;;14.90;93.60;;;;;;4953205;29;20086;-83
2021/05/31 09:47:44;;;;;;;33.80;22.35;;;15.00;93.10;;;;;;4983483;28;20032;-83
2021/05/31 09:50:11;;;;;;;32.90;21.27;;;15.10;93.10;;;;;;4943289;28;20454;-83
2021/05/31 09:52:38;;;;;;;26.00;19.05;;;15.30;92.90;;;;;;4958590;29;20047;-84
2021/05/31 09:55:06;;;;;;;30.23;22.05;;;15.40;92.40;;;;;;4986531;28;20099;-84
2021/05/31 09:57:35;;;;;;;30.17;21.52;;;15.40;92.40;;;;;;4949951;29;20035;-83
2021/05/31 10:00:10;;;;;;;30.83;22.35;;;15.50;92.60;;;;;;4951571;28;20122;-83
2021/05/31 10:07:49;;;;;;;24.27;17.75;;;15.80;92.10;;;;;;4948574;28;20042;-84
2021/05/31 10:10:15;;;;;;;25.50;18.52;;;15.90;91.00;;;;;;4948512;28;20114;-86
2021/05/31 10:12:40;;;;;;;22.70;16.25;;;16.00;91.10;;;;;;4947283;29;20052;-84
2021/05/31 10:15:08;;;;;;;28.05;18.80;;;16.10;90.10;;;;;;4977138;28;20035;-85
2021/05/31 10:17:35;;;;;;;23.67;19.05;;;16.20;90.00;;;;;;4917504;29;20321;-84
2021/05/31 10:20:03;;;;;;;25.15;17.17;;;16.30;89.90;;;;;;4939916;28;20055;-84
2021/05/31 10:22:33;;;;;;;24.75;17.63;;;16.40;89.90;;;;;;4952479;29;20039;-83
2021/05/31 10:25:00;;;;;;;27.15;18.55;;;16.50;88.40;;;;;;4968322;28;20027;-84
2021/05/31 10:27:29;;;;;;;20.85;16.70;;;16.60;89.50;;;;;;4935709;29;20038;-84
2021/05/31 10:29:55;;;;;;;21.65;16.23;;;16.70;89.20;;;;;;4948949;28;20035;-84
2021/05/31 10:32:21;;;;;;;19.08;14.05;;;16.80;88.70;;;;;;4934655;29;20410;-84
2021/05/31 10:34:52;;;;;;;20.77;13.77;;;17.00;87.00;;;;;;4934440;29;20043;-83
2021/05/31 10:37:30;;;;;;;18.23;13.45;;;17.10;85.10;;;;;;4947617;29;20058;-84
2021/05/31 10:40:08;;;;;;;18.10;12.75;;;17.20;86.50;;;;;;4949960;28;20126;-84
2021/05/31 10:42:42;;;;;;;19.52;13.68;;;17.20;86.30;;;;;;4949944;28;20039;-85
2021/05/31 10:45:26;;;;;;;19.48;13.30;;;17.30;86.50;;;;;;4950296;29;20094;-84
2021/05/31 10:47:58;;;;;;;16.35;11.82;;;17.40;87.10;;;;;;4950164;29;20036;-84
2021/05/31 10:50:51;;;;;;;19.92;14.13;;;17.40;85.10;;;;;;4950927;28;20453;-85
2021/05/31 10:53:25;;;;;;;19.20;14.40;;;17.50;83.40;;;;;;4945334;29;20043;-83
2021/05/31 10:55:59;;;;;;;23.13;15.30;;;17.60;82.40;;;;;;4952823;28;20553;-85
2021/05/31 10:58:45;;;;;;;22.48;14.15;;;17.70;80.90;;;;;;4950068;28;20487;-83
2021/05/31 11:01:13;;;;;;;24.58;14.98;;;17.80;82.90;;;;;;4951690;28;20062;-84
2021/05/31 11:03:53;;;;;;;19.42;14.40;;;17.80;81.90;;;;;;4949543;29;20039;-84
2021/05/31 11:06:25;;;;;;;18.00;13.43;;;17.90;82.10;;;;;;4959990;28;20162;-84
2021/05/31 11:08:57;;;;;;;19.70;13.43;;;18.00;81.90;;;;;;4949758;29;20482;-84
2021/05/31 11:11:32;;;;;;;18.88;13.15;;;18.10;78.50;;;;;;4951531;28;20094;-83
2021/05/31 11:14:00;;;;;;;19.50;13.05;;;18.20;76.40;;;;;;4950308;29;20035;-84
2021/05/31 11:16:27;;;;;;;18.20;12.60;;;18.30;77.50;;;;;;4943367;29;20035;-83
2021/05/31 11:18:58;;;;;;;18.75;12.70;;;18.40;79.10;;;;;;4964286;28;20426;-85
2021/05/31 11:21:35;;;;;;;16.03;12.03;;;18.50;78.00;;;;;;4945660;29;20035;-86
2021/05/31 11:24:07;;;;;;;20.67;13.38;;;18.50;76.30;;;;;;4952651;28;20043;-83
2021/05/31 11:26:36;;;;;;;17.13;13.10;;;18.60;75.20;;;;;;4945540;29;20379;-85
2021/05/31 11:29:04;;;;;;;17.88;13.07;;;18.80;74.60;;;;;;4949858;29;20039;-88
2021/05/31 11:31:30;;;;;;;18.30;11.43;;;18.80;75.20;;;;;;4950173;29;20035;-86
2021/05/31 11:33:57;;;;;;;15.23;9.25;;;18.90;74.00;;;;;;4935539;29;20090;-84
2021/05/31 11:36:32;;;;;;;11.65;7.35;;;18.90;73.60;;;;;;4951756;28;20039;-84
2021/05/31 11:39:00;;;;;;;14.32;8.25;;;19.10;69.30;;;;;;4949872;28;20047;-84
2021/05/31 11:41:53;;;;;;;11.73;7.43;;;19.30;68.70;;;;;;4957628;28;20031;-84
2021/05/31 11:44:30;;;;;;;12.93;8.30;;;19.50;65.30;;;;;;4958656;28;20047;-84
2021/05/31 11:46:58;;;;;;;12.63;9.13;;;19.60;64.40;;;;;;4957374;28;20054;-88
2021/05/31 11:49:26;;;;;;;13.23;9.55;;;19.60;66.30;;;;;;4952383;28;20039;-84
2021/05/31 11:51:57;;;;;;;11.15;8.02;;;19.70;64.10;;;;;;4950376;29;20095;-83
2021/05/31 11:54:25;;;;;;;16.52;7.57;;;19.60;65.10;;;;;;4951343;29;20512;-87
2021/05/31 11:56:50;;;;;;;11.55;8.13;;;19.70;65.20;;;;;;4919338;29;20047;-86
2021/05/31 11:59:17;;;;;;;13.82;7.95;;;19.90;63.70;;;;;;4965617;28;20058;-85
2021/05/31 12:01:53;;;;;;;13.73;7.90;;;19.90;63.20;;;;;;4981328;28;20035;-85
2021/05/31 12:04:20;;;;;;;11.90;7.80;;;20.00;62.70;;;;;;4952964;29;20071;-86
2021/05/31 12:07:15;;;;;;;10.10;8.20;;;20.10;62.60;;;;;;4936153;29;20051;-85
2021/05/31 12:09:42;;;;;;;10.82;7.50;;;20.20;62.00;;;;;;4985360;28;20138;-84
2021/05/31 12:12:10;;;;;;;12.90;6.82;;;20.20;62.10;;;;;;4967329;28;20058;-85
2021/05/31 12:15:05;;;;;;;10.95;6.15;;;20.20;63.50;;;;;;4927653;29;20038;-84
2021/05/31 12:17:32;;;;;;;11.23;6.95;;;20.20;62.50;;;;;;4928485;29;20062;-85
2021/05/31 12:19:58;;;;;;;9.70;5.85;;;20.30;63.50;;;;;;4948929;28;20490;-85
2021/05/31 12:22:30;;;;;;;8.13;5.70;;;20.30;62.10;;;;;;4932292;29;20081;-84
2021/05/31 12:24:59;;;;;;;7.45;4.50;;;20.40;63.20;;;;;;4949430;29;20118;-86
2021/05/31 12:27:30;;;;;;;11.25;7.00;;;20.40;60.60;;;;;;4949394;29;20495;-85
2021/05/31 12:29:56;;;;;;;9.23;6.55;;;20.50;59.40;;;;;;4944673;28;20501;-84
2021/05/31 12:32:27;;;;;;;11.82;6.45;;;20.50;59.20;;;;;;4965528;28;20049;-86
2021/05/31 12:34:54;;;;;;;6.45;5.38;;;20.50;57.80;;;;;;4949198;29;20035;-86
2021/05/31 12:37:26;;;;;;;5.70;3.20;;;20.60;57.70;;;;;;4933957;29;20046;-84
2021/05/31 12:39:53;;;;;;;5.78;3.17;;;20.70;53.20;;;;;;4950059;28;20391;-86
2021/05/31 12:42:38;;;;;;;5.30;3.22;;;20.80;52.70;;;;;;4981282;28;20039;-85
2021/05/31 12:45:10;;;;;;;4.65;2.50;;;20.80;52.50;;;;;;4948510;29;20141;-83
2021/05/31 12:47:41;;;;;;;11.23;4.18;;;20.90;49.10;;;;;;4981466;28;20066;-86
2021/05/31 12:50:24;;;;;;;5.72;2.28;;;21.10;48.90;;;;;;4937904;29;20066;-85
2021/05/31 12:52:49;;;;;;;;;;;21.20;48.90;;;;;;4950565;29;20059;-85
2021/05/31 12:55:24;;;;;;;5.47;2.15;;;21.30;44.00;;;;;;4950459;29;19953;-85
2021/05/31 12:57:51;;;;;;;4.07;2.17;;;21.30;46.40;;;;;;4980363;28;20035;-86